sensor_id;sensor_type;location;lat;lon;timestamp;pressure;altitude;pressure_sealevel;temperature
25985;BMP280;66753;53.848;10.658;2023-03-05T00:02:43;101364.16;;;4.38
25985;BMP280;66753;53.848;10.658;2023-03-05T00:07:44;101368.06;;;4.41
25985;BMP280;66753;53.848;10.658;2023-03-05T00:12:44;101363.69;;;4.31
25985;BMP280;66753;53.848;10.658;2023-03-05T00:17:45;101357.16;;;4.24
25985;BMP280;66753;53.848;10.658;2023-03-05T00:22:45;101351.66;;;4.20
25985;BMP280;66753;53.848;10.658;2023-03-05T00:27:46;101339.88;;;4.23
25985;BMP280;66753;53.848;10.658;2023-03-05T00:32:46;101335.13;;;4.25
25985;BMP280;66753;53.848;10.658;2023-03-05T00:37:46;101331.19;;;4.27
25985;BMP280;66753;53.848;10.658;2023-03-05T00:42:47;101329.84;;;4.30
25985;BMP280;66753;53.848;10.658;2023-03-05T00:47:47;101329.88;;;4.25
25985;BMP280;66753;53.848;10.658;2023-03-05T00:52:48;101332.22;;;4.26
25985;BMP280;66753;53.848;10.658;2023-03-05T00:57:48;101336.19;;;4.24
25985;BMP280;66753;53.848;10.658;2023-03-05T01:02:49;101326.50;;;4.19
25985;BMP280;66753;53.848;10.658;2023-03-05T01:07:54;101328.31;;;4.19
25985;BMP280;66753;53.848;10.658;2023-03-05T01:12:55;101314.19;;;4.15
25985;BMP280;66753;53.848;10.658;2023-03-05T01:17:56;101313.97;;;4.06
25985;BMP280;66753;53.848;10.658;2023-03-05T01:22:56;101301.97;;;3.95
25985;BMP280;66753;53.848;10.658;2023-03-05T01:27:58;101288.16;;;3.85
25985;BMP280;66753;53.848;10.658;2023-03-05T01:32:58;101292.34;;;3.81
25985;BMP280;66753;53.848;10.658;2023-03-05T01:37:59;101281.88;;;3.76
25985;BMP280;66753;53.848;10.658;2023-03-05T01:43:14;101270.94;;;3.69
25985;BMP280;66753;53.848;10.658;2023-03-05T01:48:18;101270.94;;;3.64
25985;BMP280;66753;53.848;10.658;2023-03-05T01:53:19;101255.75;;;3.61
25985;BMP280;66753;53.848;10.658;2023-03-05T01:58:19;101259.41;;;3.54
25985;BMP280;66753;53.848;10.658;2023-03-05T02:03:21;101249.47;;;3.51
25985;BMP280;66753;53.848;10.658;2023-03-05T02:08:22;101248.22;;;3.44
25985;BMP280;66753;53.848;10.658;2023-03-05T02:13:25;101233.56;;;3.38
25985;BMP280;66753;53.848;10.658;2023-03-05T02:18:27;101235.41;;;3.32
25985;BMP280;66753;53.848;10.658;2023-03-05T02:23:30;101232.28;;;3.30
25985;BMP280;66753;53.848;10.658;2023-03-05T02:33:36;101220.75;;;3.26
25985;BMP280;66753;53.848;10.658;2023-03-05T02:38:38;101211.34;;;3.30
25985;BMP280;66753;53.848;10.658;2023-03-05T02:43:39;101204.50;;;3.29
25985;BMP280;66753;53.848;10.658;2023-03-05T02:48:39;101196.16;;;3.27
25985;BMP280;66753;53.848;10.658;2023-03-05T02:53:40;101190.66;;;3.24
25985;BMP280;66753;53.848;10.658;2023-03-05T02:58:40;101190.16;;;3.17
25985;BMP280;66753;53.848;10.658;2023-03-05T03:03:41;101192.56;;;3.08
25985;BMP280;66753;53.848;10.658;2023-03-05T03:08:41;101194.41;;;3.03
25985;BMP280;66753;53.848;10.658;2023-03-05T03:13:42;101181.56;;;3.01
25985;BMP280;66753;53.848;10.658;2023-03-05T03:18:42;101186.81;;;3.01
25985;BMP280;66753;53.848;10.658;2023-03-05T03:23:43;101191.25;;;3.06
25985;BMP280;66753;53.848;10.658;2023-03-05T03:28:44;101187.81;;;3.05
25985;BMP280;66753;53.848;10.658;2023-03-05T03:33:45;101195.69;;;3.05
25985;BMP280;66753;53.848;10.658;2023-03-05T03:38:45;101187.56;;;3.07
25985;BMP280;66753;53.848;10.658;2023-03-05T03:43:45;101189.94;;;3.03
25985;BMP280;66753;53.848;10.658;2023-03-05T03:48:49;101184.72;;;2.98
25985;BMP280;66753;53.848;10.658;2023-03-05T03:53:49;101187.34;;;2.98
25985;BMP280;66753;53.848;10.658;2023-03-05T03:58:50;101180.00;;;3.00
25985;BMP280;66753;53.848;10.658;2023-03-05T04:03:51;101182.38;;;3.02
25985;BMP280;66753;53.848;10.658;2023-03-05T04:08:51;101178.94;;;3.06
25985;BMP280;66753;53.848;10.658;2023-03-05T04:13:52;101174.72;;;3.10
25985;BMP280;66753;53.848;10.658;2023-03-05T04:18:52;101171.31;;;3.15
25985;BMP280;66753;53.848;10.658;2023-03-05T04:23:53;101167.66;;;3.16
25985;BMP280;66753;53.848;10.658;2023-03-05T04:28:53;101163.97;;;3.17
25985;BMP280;66753;53.848;10.658;2023-03-05T04:33:54;101149.59;;;3.14
25985;BMP280;66753;53.848;10.658;2023-03-05T04:38:54;101160.59;;;3.11
25985;BMP280;66753;53.848;10.658;2023-03-05T04:43:54;101156.94;;;3.12
25985;BMP280;66753;53.848;10.658;2023-03-05T04:48:56;101162.69;;;3.09
25985;BMP280;66753;53.848;10.658;2023-03-05T04:53:57;101147.25;;;3.03
25985;BMP280;66753;53.848;10.658;2023-03-05T04:58:58;101141.78;;;2.99
25985;BMP280;66753;53.848;10.658;2023-03-05T05:03:58;101128.72;;;2.89
25985;BMP280;66753;53.848;10.658;2023-03-05T05:08:59;101127.19;;;2.83
25985;BMP280;66753;53.848;10.658;2023-03-05T05:13:59;101118.31;;;2.79
25985;BMP280;66753;53.848;10.658;2023-03-05T05:18:59;101122.22;;;2.77
25985;BMP280;66753;53.848;10.658;2023-03-05T05:24:00;101127.22;;;2.73
25985;BMP280;66753;53.848;10.658;2023-03-05T05:29:00;101125.63;;;2.72
25985;BMP280;66753;53.848;10.658;2023-03-05T05:34:01;101122.00;;;2.73
25985;BMP280;66753;53.848;10.658;2023-03-05T05:39:02;101115.69;;;2.74
25985;BMP280;66753;53.848;10.658;2023-03-05T05:44:02;101111.25;;;2.70
25985;BMP280;66753;53.848;10.658;2023-03-05T05:49:03;101111.00;;;2.71
25985;BMP280;66753;53.848;10.658;2023-03-05T05:54:03;101114.41;;;2.72
25985;BMP280;66753;53.848;10.658;2023-03-05T05:59:04;101114.63;;;2.70
25985;BMP280;66753;53.848;10.658;2023-03-05T06:04:04;101115.97;;;2.73
25985;BMP280;66753;53.848;10.658;2023-03-05T06:09:05;101118.31;;;2.74
25985;BMP280;66753;53.848;10.658;2023-03-05T06:14:05;101121.44;;;2.76
25985;BMP280;66753;53.848;10.658;2023-03-05T06:19:11;101119.84;;;2.80
25985;BMP280;66753;53.848;10.658;2023-03-05T06:24:11;101126.69;;;2.81
25985;BMP280;66753;53.848;10.658;2023-03-05T06:29:12;101130.31;;;2.85
25985;BMP280;66753;53.848;10.658;2023-03-05T06:34:13;101119.31;;;2.88
25985;BMP280;66753;53.848;10.658;2023-03-05T06:39:13;101126.06;;;2.94
25985;BMP280;66753;53.848;10.658;2023-03-05T06:44:14;101126.06;;;3.04
25985;BMP280;66753;53.848;10.658;2023-03-05T06:49:14;101121.28;;;3.16
25985;BMP280;66753;53.848;10.658;2023-03-05T06:54:16;101114.44;;;3.25
25985;BMP280;66753;53.848;10.658;2023-03-05T06:59:17;101121.72;;;3.33
25985;BMP280;66753;53.848;10.658;2023-03-05T07:04:17;101123.75;;;3.46
25985;BMP280;66753;53.848;10.658;2023-03-05T07:09:18;101124.47;;;3.52
25985;BMP280;66753;53.848;10.658;2023-03-05T07:14:19;101121.06;;;3.51
25985;BMP280;66753;53.848;10.658;2023-03-05T07:19:19;101115.34;;;3.49
25985;BMP280;66753;53.848;10.658;2023-03-05T07:24:19;101121.81;;;3.67
25985;BMP280;66753;53.848;10.658;2023-03-05T07:29:20;101117.66;;;3.90
25985;BMP280;66753;53.848;10.658;2023-03-05T07:34:21;101121.69;;;4.11
25985;BMP280;66753;53.848;10.658;2023-03-05T07:39:21;101118.50;;;4.14
25985;BMP280;66753;53.848;10.658;2023-03-05T07:44:22;101112.97;;;4.15
25985;BMP280;66753;53.848;10.658;2023-03-05T07:49:22;101108.06;;;4.09
25985;BMP280;66753;53.848;10.658;2023-03-05T07:54:23;101101.78;;;4.10
25985;BMP280;66753;53.848;10.658;2023-03-05T07:59:23;101097.38;;;4.05
25985;BMP280;66753;53.848;10.658;2023-03-05T08:04:24;101092.53;;;4.12
25985;BMP280;66753;53.848;10.658;2023-03-05T08:09:25;101084.50;;;4.32
25985;BMP280;66753;53.848;10.658;2023-03-05T08:14:26;101084.81;;;4.73
25985;BMP280;66753;53.848;10.658;2023-03-05T08:19:27;101078.66;;;5.01
25985;BMP280;66753;53.848;10.658;2023-03-05T08:24:27;101087.44;;;5.47
25985;BMP280;66753;53.848;10.658;2023-03-05T08:29:28;101079.06;;;5.63
25985;BMP280;66753;53.848;10.658;2023-03-05T08:34:29;101070.81;;;5.51
25985;BMP280;66753;53.848;10.658;2023-03-05T08:39:30;101065.69;;;5.60
25985;BMP280;66753;53.848;10.658;2023-03-05T08:44:30;101070.28;;;5.68
25985;BMP280;66753;53.848;10.658;2023-03-05T08:49:31;101051.66;;;5.51
25985;BMP280;66753;53.848;10.658;2023-03-05T08:54:32;101049.25;;;5.68
25985;BMP280;66753;53.848;10.658;2023-03-05T08:59:33;101041.03;;;5.88
25985;BMP280;66753;53.848;10.658;2023-03-05T09:04:33;101041.88;;;5.97
25985;BMP280;66753;53.848;10.658;2023-03-05T09:09:34;101030.78;;;6.27
25985;BMP280;66753;53.848;10.658;2023-03-05T09:14:34;101020.66;;;6.21
25985;BMP280;66753;53.848;10.658;2023-03-05T09:19:35;101022.31;;;6.17
25985;BMP280;66753;53.848;10.658;2023-03-05T09:24:35;101021.06;;;6.01
25985;BMP280;66753;53.848;10.658;2023-03-05T09:29:36;101004.09;;;5.93
25985;BMP280;66753;53.848;10.658;2023-03-05T09:34:36;101009.44;;;6.02
25985;BMP280;66753;53.848;10.658;2023-03-05T09:39:38;100994.38;;;6.07
25985;BMP280;66753;53.848;10.658;2023-03-05T09:44:53;101004.19;;;6.29
25985;BMP280;66753;53.848;10.658;2023-03-05T09:55:07;100981.69;;;6.58
25985;BMP280;66753;53.848;10.658;2023-03-05T10:00:33;100987.91;;;6.62
25985;BMP280;66753;53.848;10.658;2023-03-05T10:11:33;100964.53;;;6.61
25985;BMP280;66753;53.848;10.658;2023-03-05T10:22:32;100955.59;;;6.92
25985;BMP280;66753;53.848;10.658;2023-03-05T10:27:48;100943.16;;;6.84
25985;BMP280;66753;53.848;10.658;2023-03-05T10:32:57;100945.84;;;6.71
25985;BMP280;66753;53.848;10.658;2023-03-05T10:43:35;100937.63;;;7.25
25985;BMP280;66753;53.848;10.658;2023-03-05T10:48:54;100927.13;;;6.94
25985;BMP280;66753;53.848;10.658;2023-03-05T10:54:01;100915.69;;;6.77
25985;BMP280;66753;53.848;10.658;2023-03-05T10:59:03;100913.47;;;6.70
25985;BMP280;66753;53.848;10.658;2023-03-05T11:04:25;100918.47;;;6.58
25985;BMP280;66753;53.848;10.658;2023-03-05T11:09:28;100914.63;;;6.42
25985;BMP280;66753;53.848;10.658;2023-03-05T11:14:29;100914.09;;;6.32
25985;BMP280;66753;53.848;10.658;2023-03-05T11:19:32;100906.50;;;6.30
25985;BMP280;66753;53.848;10.658;2023-03-05T11:24:33;100913.22;;;6.58
25985;BMP280;66753;53.848;10.658;2023-03-05T11:29:46;100895.88;;;6.57
25985;BMP280;66753;53.848;10.658;2023-03-05T11:34:47;100903.84;;;6.66
25985;BMP280;66753;53.848;10.658;2023-03-05T11:39:48;100908.88;;;7.06
25985;BMP280;66753;53.848;10.658;2023-03-05T11:45:05;100909.81;;;7.32
25985;BMP280;66753;53.848;10.658;2023-03-05T12:00:26;100857.19;;;7.27
25985;BMP280;66753;53.848;10.658;2023-03-05T12:05:28;100855.88;;;7.55
25985;BMP280;66753;53.848;10.658;2023-03-05T12:10:29;100841.31;;;7.66
25985;BMP280;66753;53.848;10.658;2023-03-05T12:20:59;100821.59;;;7.55
25985;BMP280;66753;53.848;10.658;2023-03-05T12:26:02;100796.44;;;7.32
25985;BMP280;66753;53.848;10.658;2023-03-05T12:46:25;100795.84;;;6.96
25985;BMP280;66753;53.848;10.658;2023-03-05T12:51:33;100792.06;;;6.89
25985;BMP280;66753;53.848;10.658;2023-03-05T12:56:35;100806.84;;;6.98
25985;BMP280;66753;53.848;10.658;2023-03-05T13:02:13;100812.28;;;7.02
25985;BMP280;66753;53.848;10.658;2023-03-05T13:07:17;100819.19;;;6.89
25985;BMP280;66753;53.848;10.658;2023-03-05T13:12:18;100819.09;;;6.94
25985;BMP280;66753;53.848;10.658;2023-03-05T13:17:35;100821.53;;;7.30
25985;BMP280;66753;53.848;10.658;2023-03-05T13:22:39;100807.88;;;7.36
25985;BMP280;66753;53.848;10.658;2023-03-05T13:27:41;100818.06;;;7.85
25985;BMP280;66753;53.848;10.658;2023-03-05T13:32:41;100807.31;;;8.24
25985;BMP280;66753;53.848;10.658;2023-03-05T13:37:43;100780.94;;;7.82
25985;BMP280;66753;53.848;10.658;2023-03-05T13:42:43;100769.63;;;7.64
25985;BMP280;66753;53.848;10.658;2023-03-05T13:52:54;100763.53;;;7.38
25985;BMP280;66753;53.848;10.658;2023-03-05T13:57:54;100765.41;;;7.29
25985;BMP280;66753;53.848;10.658;2023-03-05T14:02:58;100768.13;;;7.07
25985;BMP280;66753;53.848;10.658;2023-03-05T14:07:59;100773.31;;;6.82
25985;BMP280;66753;53.848;10.658;2023-03-05T14:13:05;100800.81;;;6.37
25985;BMP280;66753;53.848;10.658;2023-03-05T14:23:25;100797.13;;;5.80
25985;BMP280;66753;53.848;10.658;2023-03-05T14:28:27;100793.13;;;6.05
25985;BMP280;66753;53.848;10.658;2023-03-05T14:33:30;100797.75;;;6.21
25985;BMP280;66753;53.848;10.658;2023-03-05T14:38:32;100791.50;;;6.17
25985;BMP280;66753;53.848;10.658;2023-03-05T14:43:33;100777.63;;;6.25
25985;BMP280;66753;53.848;10.658;2023-03-05T14:48:34;100758.28;;;6.21
25985;BMP280;66753;53.848;10.658;2023-03-05T14:53:39;100751.19;;;6.30
25985;BMP280;66753;53.848;10.658;2023-03-05T14:58:41;100735.09;;;6.32
25985;BMP280;66753;53.848;10.658;2023-03-05T15:03:42;100713.56;;;6.30
25985;BMP280;66753;53.848;10.658;2023-03-05T15:08:42;100716.97;;;6.30
25985;BMP280;66753;53.848;10.658;2023-03-05T15:13:43;100717.19;;;6.12
25985;BMP280;66753;53.848;10.658;2023-03-05T15:18:44;100713.59;;;6.08
25985;BMP280;66753;53.848;10.658;2023-03-05T15:23:44;100716.03;;;6.04
25985;BMP280;66753;53.848;10.658;2023-03-05T15:28:44;100709.28;;;6.12
25985;BMP280;66753;53.848;10.658;2023-03-05T15:33:45;100705.16;;;6.19
25985;BMP280;66753;53.848;10.658;2023-03-05T15:38:45;100697.88;;;6.16
25985;BMP280;66753;53.848;10.658;2023-03-05T15:43:47;100692.13;;;6.14
25985;BMP280;66753;53.848;10.658;2023-03-05T15:48:47;100686.56;;;6.16
25985;BMP280;66753;53.848;10.658;2023-03-05T15:53:49;100680.66;;;6.10
25985;BMP280;66753;53.848;10.658;2023-03-05T15:58:49;100682.44;;;6.01
25985;BMP280;66753;53.848;10.658;2023-03-05T16:03:50;100679.19;;;5.96
25985;BMP280;66753;53.848;10.658;2023-03-05T16:08:55;100675.16;;;5.98
25985;BMP280;66753;53.848;10.658;2023-03-05T16:13:58;100661.06;;;5.94
25985;BMP280;66753;53.848;10.658;2023-03-05T16:19:04;100660.59;;;5.92
25985;BMP280;66753;53.848;10.658;2023-03-05T16:24:06;100647.78;;;5.77
25985;BMP280;66753;53.848;10.658;2023-03-05T16:29:06;100646.47;;;5.66
25985;BMP280;66753;53.848;10.658;2023-03-05T16:34:08;100638.53;;;5.57
25985;BMP280;66753;53.848;10.658;2023-03-05T16:39:08;100636.13;;;5.47
25985;BMP280;66753;53.848;10.658;2023-03-05T16:44:09;100618.94;;;5.41
25985;BMP280;66753;53.848;10.658;2023-03-05T16:49:10;100618.44;;;5.39
25985;BMP280;66753;53.848;10.658;2023-03-05T16:54:10;100626.81;;;5.41
25985;BMP280;66753;53.848;10.658;2023-03-05T16:59:10;100618.81;;;5.46
25985;BMP280;66753;53.848;10.658;2023-03-05T17:04:11;100628.84;;;5.44
25985;BMP280;66753;53.848;10.658;2023-03-05T17:09:12;100624.47;;;5.40
25985;BMP280;66753;53.848;10.658;2023-03-05T17:14:12;100620.19;;;5.44
25985;BMP280;66753;53.848;10.658;2023-03-05T17:19:13;100617.09;;;5.42
25985;BMP280;66753;53.848;10.658;2023-03-05T17:24:14;100616.72;;;5.35
25985;BMP280;66753;53.848;10.658;2023-03-05T17:29:14;100609.53;;;5.27
25985;BMP280;66753;53.848;10.658;2023-03-05T17:34:15;100609.16;;;5.20
25985;BMP280;66753;53.848;10.658;2023-03-05T17:39:16;100607.22;;;5.12
25985;BMP280;66753;53.848;10.658;2023-03-05T17:44:18;100624.78;;;5.03
25985;BMP280;66753;53.848;10.658;2023-03-05T17:49:18;100618.56;;;4.99
25985;BMP280;66753;53.848;10.658;2023-03-05T17:54:19;100616.41;;;5.01
25985;BMP280;66753;53.848;10.658;2023-03-05T17:59:19;100632.09;;;4.92
25985;BMP280;66753;53.848;10.658;2023-03-05T18:04:19;100623.03;;;4.85
25985;BMP280;66753;53.848;10.658;2023-03-05T18:09:20;100624.22;;;4.79
25985;BMP280;66753;53.848;10.658;2023-03-05T18:14:21;100627.41;;;4.76
25985;BMP280;66753;53.848;10.658;2023-03-05T18:19:22;100626.38;;;4.77
25985;BMP280;66753;53.848;10.658;2023-03-05T18:24:24;100619.53;;;4.76
25985;BMP280;66753;53.848;10.658;2023-03-05T18:29:24;100616.91;;;4.76
25985;BMP280;66753;53.848;10.658;2023-03-05T18:34:26;100613.31;;;4.72
25985;BMP280;66753;53.848;10.658;2023-03-05T18:39:27;100608.84;;;4.72
25985;BMP280;66753;53.848;10.658;2023-03-05T18:44:32;100597.50;;;4.63
25985;BMP280;66753;53.848;10.658;2023-03-05T18:49:33;100600.13;;;4.63
25985;BMP280;66753;53.848;10.658;2023-03-05T18:54:33;100593.63;;;4.61
25985;BMP280;66753;53.848;10.658;2023-03-05T18:59:34;100586.69;;;4.65
25985;BMP280;66753;53.848;10.658;2023-03-05T19:04:34;100589.34;;;4.65
25985;BMP280;66753;53.848;10.658;2023-03-05T19:09:49;100577.00;;;4.65
25985;BMP280;66753;53.848;10.658;2023-03-05T19:14:56;100573.00;;;4.54
25985;BMP280;66753;53.848;10.658;2023-03-05T19:19:57;100561.34;;;4.47
25985;BMP280;66753;53.848;10.658;2023-03-05T19:24:59;100568.44;;;4.46
25985;BMP280;66753;53.848;10.658;2023-03-05T19:30:01;100563.19;;;4.46
25985;BMP280;66753;53.848;10.658;2023-03-05T19:35:02;100560.16;;;4.39
25985;BMP280;66753;53.848;10.658;2023-03-05T19:40:03;100552.88;;;4.36
25985;BMP280;66753;53.848;10.658;2023-03-05T19:45:05;100557.34;;;4.36
25985;BMP280;66753;53.848;10.658;2023-03-05T19:50:06;100548.81;;;4.30
25985;BMP280;66753;53.848;10.658;2023-03-05T19:55:13;100547.00;;;4.31
25985;BMP280;66753;53.848;10.658;2023-03-05T20:00:14;100551.75;;;4.29
25985;BMP280;66753;53.848;10.658;2023-03-05T20:05:15;100534.91;;;4.30
25985;BMP280;66753;53.848;10.658;2023-03-05T20:10:15;100536.66;;;4.21
25985;BMP280;66753;53.848;10.658;2023-03-05T20:15:16;100534.63;;;4.18
25985;BMP280;66753;53.848;10.658;2023-03-05T20:20:17;100533.03;;;4.17
25985;BMP280;66753;53.848;10.658;2023-03-05T20:25:18;100524.81;;;4.10
25985;BMP280;66753;53.848;10.658;2023-03-05T20:30:21;100522.50;;;4.08
25985;BMP280;66753;53.848;10.658;2023-03-05T20:35:21;100514.72;;;4.03
25985;BMP280;66753;53.848;10.658;2023-03-05T20:40:22;100511.47;;;3.93
25985;BMP280;66753;53.848;10.658;2023-03-05T20:45:23;100505.06;;;3.85
25985;BMP280;66753;53.848;10.658;2023-03-05T20:50:25;100501.69;;;3.85
25985;BMP280;66753;53.848;10.658;2023-03-05T20:55:26;100495.94;;;3.83
25985;BMP280;66753;53.848;10.658;2023-03-05T21:00:28;100492.31;;;3.79
25985;BMP280;66753;53.848;10.658;2023-03-05T21:05:29;100486.69;;;3.72
25985;BMP280;66753;53.848;10.658;2023-03-05T21:10:30;100480.16;;;3.69
25985;BMP280;66753;53.848;10.658;2023-03-05T21:15:31;100481.16;;;3.73
25985;BMP280;66753;53.848;10.658;2023-03-05T21:20:31;100476.81;;;3.69
25985;BMP280;66753;53.848;10.658;2023-03-05T21:25:32;100466.00;;;3.70
25985;BMP280;66753;53.848;10.658;2023-03-05T21:30:38;100460.19;;;3.73
25985;BMP280;66753;53.848;10.658;2023-03-05T21:35:39;100451.19;;;3.66
25985;BMP280;66753;53.848;10.658;2023-03-05T21:40:42;100456.91;;;3.68
25985;BMP280;66753;53.848;10.658;2023-03-05T21:45:45;100454.34;;;3.63
25985;BMP280;66753;53.848;10.658;2023-03-05T21:50:50;100447.56;;;3.62
25985;BMP280;66753;53.848;10.658;2023-03-05T21:55:51;100441.91;;;3.54
25985;BMP280;66753;53.848;10.658;2023-03-05T22:01:15;100443.00;;;3.53
25985;BMP280;66753;53.848;10.658;2023-03-05T22:06:18;100443.56;;;3.50
25985;BMP280;66753;53.848;10.658;2023-03-05T22:11:19;100434.91;;;3.50
25985;BMP280;66753;53.848;10.658;2023-03-05T22:16:25;100427.28;;;3.53
25985;BMP280;66753;53.848;10.658;2023-03-05T22:21:27;100422.53;;;3.56
25985;BMP280;66753;53.848;10.658;2023-03-05T22:26:39;100423.56;;;3.54
25985;BMP280;66753;53.848;10.658;2023-03-05T22:31:39;100411.06;;;3.51
25985;BMP280;66753;53.848;10.658;2023-03-05T22:36:40;100401.00;;;3.59
25985;BMP280;66753;53.848;10.658;2023-03-05T22:41:40;100397.28;;;3.60
25985;BMP280;66753;53.848;10.658;2023-03-05T22:46:41;100396.34;;;3.56
25985;BMP280;66753;53.848;10.658;2023-03-05T22:51:43;100393.78;;;3.50
25985;BMP280;66753;53.848;10.658;2023-03-05T22:56:43;100393.59;;;3.47
25985;BMP280;66753;53.848;10.658;2023-03-05T23:01:44;100385.94;;;3.50
25985;BMP280;66753;53.848;10.658;2023-03-05T23:06:44;100381.78;;;3.49
25985;BMP280;66753;53.848;10.658;2023-03-05T23:11:47;100383.41;;;3.45
25985;BMP280;66753;53.848;10.658;2023-03-05T23:16:48;100383.09;;;3.47
25985;BMP280;66753;53.848;10.658;2023-03-05T23:21:48;100375.53;;;3.45
25985;BMP280;66753;53.848;10.658;2023-03-05T23:26:48;100381.38;;;3.42
25985;BMP280;66753;53.848;10.658;2023-03-05T23:31:53;100386.41;;;3.39
25985;BMP280;66753;53.848;10.658;2023-03-05T23:36:53;100375.72;;;3.35
25985;BMP280;66753;53.848;10.658;2023-03-05T23:41:54;100365.25;;;3.35
25985;BMP280;66753;53.848;10.658;2023-03-05T23:46:54;100367.03;;;3.40
25985;BMP280;66753;53.848;10.658;2023-03-05T23:51:54;100366.25;;;3.39
25985;BMP280;66753;53.848;10.658;2023-03-05T23:56:55;100371.56;;;3.34
